Time;durP1;ratioP1;P1;durP2;ratioP2;P2;SDS_P1;SDS_P2;PMS_P1;PMS_P2;Temp;Humidity;BMP_temperature;BMP_pressure;BME280_temperature;BME280_humidity;BME280_pressure;Samples;Min_cycle;Max_cycle;Signal;HPM_P1;HPM_P2
2023/04/28 00:00:39;;;;;;;6.07;4.72;;;;;;;;;;4953453;28;20046;-76
2023/04/28 00:03:05;;;;;;;5.50;4.20;;;;;;;;;;4953274;28;20049;-75
2023/04/28 00:05:30;;;;;;;7.05;4.18;;;;;;;;;;4938525;28;20695;-75
2023/04/28 00:07:56;;;;;;;2.33;2.13;;;;;;;;;;4947437;28;20173;-76
2023/04/28 00:10:21;;;;;;;6.72;4.43;;;;;;;;;;4955535;28;20496;-76
2023/04/28 00:12:46;;;;;;;5.75;4.40;;;;;;;;;;4944499;28;20073;-76
2023/04/28 00:15:12;;;;;;;7.03;4.70;;;;;;;;;;4947677;28;20412;-76
2023/04/28 00:17:37;;;;;;;6.55;4.43;;;;;;;;;;4952616;28;20133;-76
2023/04/28 00:20:04;;;;;;;8.50;4.72;;;;;;;;;;4934320;28;20807;-77
2023/04/28 00:22:30;;;;;;;7.53;4.10;;;;;;;;;;4946776;28;20072;-77
2023/04/28 00:24:55;;;;;;;7.72;4.43;;;;;;;;;;4949319;28;20038;-77
2023/04/28 00:27:20;;;;;;;3.65;3.25;;;;;;;;;;4949952;28;20125;-77
2023/04/28 00:29:46;;;;;;;8.75;4.60;;;;;;;;;;4952974;28;20039;-76
2023/04/28 00:32:12;;;;;;;6.70;4.38;;;;;;;;;;4941121;28;20054;-77
2023/04/28 00:34:37;;;;;;;7.40;4.65;;;;;;;;;;4934627;28;20054;-76
2023/04/28 00:37:03;;;;;;;3.35;2.22;;;;;;;;;;4937265;28;20561;-74
2023/04/28 00:39:28;;;;;;;10.15;4.85;;;;;;;;;;4937028;28;20042;-76
2023/04/28 00:41:54;;;;;;;8.52;5.20;;;;;;;;;;4951150;28;20705;-74
2023/04/28 00:44:20;;;;;;;5.38;4.03;;;;;;;;;;4947607;28;20126;-75
2023/04/28 00:46:45;;;;;;;7.47;4.78;;;;;;;;;;4944154;28;20463;-77
2023/04/28 00:49:11;;;;;;;7.82;5.00;;;;;;;;;;4934524;28;20530;-74
2023/04/28 00:51:36;;;;;;;7.93;4.63;;;;;;;;;;4944307;28;20053;-75
2023/04/28 00:54:02;;;;;;;7.22;4.57;;;;;;;;;;4950967;28;20050;-76
2023/04/28 00:56:30;;;;;;;7.25;5.18;;;;;;;;;;4949181;28;20046;-77
2023/04/28 00:58:56;;;;;;;7.32;5.22;;;;;;;;;;4950251;28;20062;-75
2023/04/28 01:01:24;;;;;;;2.85;2.28;;;;;;;;;;4937101;28;20121;-76
2023/04/28 01:03:49;;;;;;;6.43;3.85;;;;;;;;;;4923171;28;20116;-73
2023/04/28 01:06:15;;;;;;;4.03;2.10;;;;;;;;;;4955332;28;20114;-76
2023/04/28 01:08:42;;;;;;;4.80;3.50;;;;;;;;;;4961342;28;20038;-75
2023/04/28 01:11:12;;;;;;;10.50;5.25;;;;;;;;;;4945924;28;20093;-73
2023/04/28 01:13:38;;;;;;;5.68;4.75;;;;;;;;;;4928328;28;20504;-73
2023/04/28 01:16:05;;;;;;;8.98;5.03;;;;;;;;;;4933150;28;20058;-76
2023/04/28 01:18:30;;;;;;;4.05;3.03;;;;;;;;;;4950580;28;20106;-76
2023/04/28 01:20:56;;;;;;;7.68;5.20;;;;;;;;;;4948016;28;20035;-76
2023/04/28 01:23:21;;;;;;;6.80;3.90;;;;;;;;;;4946836;28;20054;-74
2023/04/28 01:25:46;;;;;;;8.52;5.30;;;;;;;;;;4949409;28;20042;-75
2023/04/28 01:28:12;;;;;;;8.43;4.88;;;;;;;;;;4938267;28;20046;-75
2023/04/28 01:30:37;;;;;;;7.70;4.75;;;;;;;;;;4937998;28;20117;-73
2023/04/28 01:33:03;;;;;;;8.27;5.10;;;;;;;;;;4946272;28;20047;-73
2023/04/28 01:35:28;;;;;;;7.72;4.65;;;;;;;;;;4949845;28;20122;-75
2023/04/28 01:37:54;;;;;;;8.15;4.93;;;;;;;;;;4948598;28;20492;-73
2023/04/28 01:40:20;;;;;;;7.60;4.72;;;;;;;;;;4950013;28;20188;-75
2023/04/28 01:42:45;;;;;;;10.27;4.72;;;;;;;;;;4940694;28;20042;-74
2023/04/28 01:45:11;;;;;;;6.93;4.60;;;;;;;;;;4943303;28;20137;-75
2023/04/28 01:47:36;;;;;;;8.85;5.15;;;;;;;;;;4954320;28;20053;-75
2023/04/28 01:50:02;;;;;;;2.50;2.10;;;;;;;;;;4949937;28;20117;-74
2023/04/28 01:52:27;;;;;;;3.85;2.63;;;;;;;;;;4952087;28;20079;-75
2023/04/28 01:54:53;;;;;;;5.03;3.53;;;;;;;;;;4949195;28;20125;-73
2023/04/28 01:57:19;;;;;;;8.05;4.90;;;;;;;;;;4937193;28;20035;-73
2023/04/28 01:59:45;;;;;;;6.25;4.78;;;;;;;;;;4939646;28;20166;-75
2023/04/28 02:02:10;;;;;;;7.05;4.78;;;;;;;;;;4953278;28;20491;-74
2023/04/28 02:04:37;;;;;;;7.75;5.20;;;;;;;;;;4950114;28;20034;-75
2023/04/28 02:07:02;;;;;;;6.30;4.93;;;;;;;;;;4952303;28;20035;-73
2023/04/28 02:09:28;;;;;;;7.50;4.93;;;;;;;;;;4951310;28;20034;-73
2023/04/28 02:11:53;;;;;;;9.10;5.50;;;;;;;;;;4937317;28;20427;-75
2023/04/28 02:14:18;;;;;;;6.55;4.93;;;;;;;;;;4941247;28;20055;-75
2023/04/28 02:16:44;;;;;;;7.45;4.40;;;;;;;;;;4931510;28;20135;-75
2023/04/28 02:19:09;;;;;;;7.60;5.13;;;;;;;;;;4942386;28;20063;-72
2023/04/28 02:21:35;;;;;;;6.90;4.68;;;;;;;;;;4951144;28;20109;-75
2023/04/28 02:24:00;;;;;;;9.48;5.28;;;;;;;;;;4956233;28;20550;-75
2023/04/28 02:26:25;;;;;;;8.68;4.78;;;;;;;;;;4933599;28;20048;-75
2023/04/28 02:28:51;;;;;;;7.60;4.30;;;;;;;;;;4949353;28;20046;-76
2023/04/28 02:31:16;;;;;;;9.00;4.88;;;;;;;;;;4948956;28;20047;-73
2023/04/28 02:33:43;;;;;;;7.53;4.70;;;;;;;;;;4947436;28;20494;-74
2023/04/28 02:36:09;;;;;;;5.80;4.40;;;;;;;;;;4949329;28;20488;-76
2023/04/28 02:38:34;;;;;;;6.65;4.78;;;;;;;;;;4936122;28;20431;-75
2023/04/28 02:41:03;;;;;;;6.72;4.75;;;;;;;;;;4937978;28;20042;-75
2023/04/28 02:43:32;;;;;;;7.35;4.68;;;;;;;;;;4945588;28;20074;-73
2023/04/28 02:45:57;;;;;;;5.22;3.78;;;;;;;;;;4954951;28;20046;-75
2023/04/28 02:48:23;;;;;;;6.72;4.55;;;;;;;;;;4949267;28;20815;-76
2023/04/28 02:50:49;;;;;;;7.35;4.75;;;;;;;;;;4947364;28;20042;-76
2023/04/28 02:53:15;;;;;;;8.52;5.20;;;;;;;;;;4949056;28;20042;-76
2023/04/28 02:55:40;;;;;;;7.68;5.07;;;;;;;;;;4943687;28;20608;-74
2023/04/28 02:58:05;;;;;;;10.27;4.45;;;;;;;;;;4935393;28;20031;-76
2023/04/28 03:00:31;;;;;;;8.50;4.93;;;;;;;;;;4951632;28;20787;-75
2023/04/28 03:02:56;;;;;;;7.07;5.20;;;;;;;;;;4947909;28;20097;-76
2023/04/28 03:05:22;;;;;;;3.33;2.78;;;;;;;;;;4950123;28;20038;-73
2023/04/28 03:07:47;;;;;;;6.22;4.40;;;;;;;;;;4930520;28;20794;-76
2023/04/28 03:10:12;;;;;;;7.53;4.65;;;;;;;;;;4945430;28;20046;-76
2023/04/28 03:12:38;;;;;;;4.07;3.60;;;;;;;;;;4934287;28;20046;-73
2023/04/28 03:15:03;;;;;;;8.55;5.80;;;;;;;;;;4949923;28;20042;-74
2023/04/28 03:17:29;;;;;;;5.38;4.35;;;;;;;;;;4957525;28;20050;-76
2023/04/28 03:19:54;;;;;;;10.65;5.10;;;;;;;;;;4950659;28;20186;-75
2023/04/28 03:22:20;;;;;;;8.10;5.03;;;;;;;;;;4933342;28;20035;-76
2023/04/28 03:24:45;;;;;;;6.97;5.05;;;;;;;;;;4946735;28;20057;-76
2023/04/28 03:27:11;;;;;;;4.53;3.33;;;;;;;;;;4950885;28;20042;-76
2023/04/28 03:29:36;;;;;;;6.68;3.50;;;;;;;;;;4948459;28;20119;-76
2023/04/28 03:32:01;;;;;;;7.55;5.20;;;;;;;;;;4953471;28;20078;-75
2023/04/28 03:34:27;;;;;;;6.80;4.18;;;;;;;;;;4953327;28;20058;-76
2023/04/28 03:36:52;;;;;;;7.63;5.03;;;;;;;;;;4935414;28;20464;-76
2023/04/28 03:39:17;;;;;;;9.73;5.20;;;;;;;;;;4951137;28;20045;-76
2023/04/28 03:41:43;;;;;;;7.57;5.03;;;;;;;;;;4951671;28;20512;-75
2023/04/28 03:44:08;;;;;;;7.15;5.03;;;;;;;;;;4951040;28;20093;-74
2023/04/28 03:46:33;;;;;;;7.25;4.30;;;;;;;;;;4950059;28;20039;-73
2023/04/28 03:49:01;;;;;;;7.22;4.15;;;;;;;;;;4946012;28;20129;-75
2023/04/28 03:51:28;;;;;;;11.32;5.13;;;;;;;;;;4950277;28;20038;-74
2023/04/28 03:53:54;;;;;;;8.05;4.88;;;;;;;;;;4950250;28;20046;-74
2023/04/28 03:56:19;;;;;;;8.77;5.43;;;;;;;;;;4949857;28;20043;-77
2023/04/28 03:58:45;;;;;;;11.30;5.13;;;;;;;;;;4952434;28;20035;-77
2023/04/28 04:01:10;;;;;;;8.80;5.63;;;;;;;;;;4950224;28;20416;-77
2023/04/28 04:03:35;;;;;;;7.10;5.25;;;;;;;;;;4939817;28;20046;-76
2023/04/28 04:06:01;;;;;;;8.95;5.63;;;;;;;;;;4940245;28;20034;-76
2023/04/28 04:08:26;;;;;;;8.55;5.18;;;;;;;;;;4950508;28;20043;-73
2023/04/28 04:10:53;;;;;;;9.10;5.22;;;;;;;;;;4950378;28;20085;-75
2023/04/28 04:13:19;;;;;;;9.50;5.32;;;;;;;;;;4956622;28;20108;-73
2023/04/28 04:15:45;;;;;;;11.00;5.35;;;;;;;;;;4961132;28;20042;-75
2023/04/28 04:18:10;;;;;;;10.90;5.85;;;;;;;;;;4943249;28;20050;-76
2023/04/28 04:20:36;;;;;;;6.88;4.85;;;;;;;;;;4952201;28;20484;-73
2023/04/28 04:23:02;;;;;;;11.73;5.03;;;;;;;;;;4958262;28;20483;-75
2023/04/28 04:25:28;;;;;;;10.13;5.50;;;;;;;;;;4939134;28;20045;-76
2023/04/28 04:27:53;;;;;;;8.70;5.43;;;;;;;;;;4934349;28;20038;-74
2023/04/28 04:30:19;;;;;;;11.48;5.50;;;;;;;;;;4948659;28;20259;-76
2023/04/28 04:32:44;;;;;;;10.48;5.55;;;;;;;;;;4935604;28;20046;-75
2023/04/28 04:35:10;;;;;;;9.68;5.30;;;;;;;;;;4959249;28;20161;-76
2023/04/28 04:37:35;;;;;;;10.18;5.80;;;;;;;;;;4957863;28;20498;-73
2023/04/28 04:40:01;;;;;;;9.35;5.97;;;;;;;;;;4953247;28;20090;-74
2023/04/28 04:42:27;;;;;;;10.10;5.85;;;;;;;;;;4953036;28;20039;-77
2023/04/28 04:44:52;;;;;;;9.82;6.10;;;;;;;;;;4935632;28;20399;-77
2023/04/28 04:47:18;;;;;;;11.05;6.07;;;;;;;;;;4928009;28;20108;-76
2023/04/28 04:49:43;;;;;;;8.60;5.53;;;;;;;;;;4948593;28;20049;-77
2023/04/28 04:52:08;;;;;;;9.40;5.93;;;;;;;;;;4947438;28;20081;-76
2023/04/28 04:54:34;;;;;;;5.47;3.75;;;;;;;;;;4937480;28;20046;-76
2023/04/28 04:56:59;;;;;;;8.30;4.45;;;;;;;;;;4949116;28;20035;-73
2023/04/28 04:59:25;;;;;;;7.25;4.60;;;;;;;;;;4937719;28;20050;-76
2023/04/28 05:01:50;;;;;;;9.57;6.35;;;;;;;;;;4916714;28;20051;-74
2023/04/28 05:04:15;;;;;;;11.65;6.50;;;;;;;;;;4946678;28;20725;-77
2023/04/28 05:06:41;;;;;;;9.07;6.00;;;;;;;;;;4946203;28;20039;-77
2023/04/28 05:09:06;;;;;;;10.15;6.00;;;;;;;;;;4946325;28;20031;-76
2023/04/28 05:11:32;;;;;;;10.93;6.20;;;;;;;;;;4946340;28;20031;-74
2023/04/28 05:13:57;;;;;;;8.88;5.20;;;;;;;;;;4919589;28;20051;-77
2023/04/28 05:16:22;;;;;;;8.65;5.07;;;;;;;;;;4916650;28;20118;-75
2023/04/28 05:18:48;;;;;;;11.50;7.60;;;;;;;;;;4950505;28;20062;-74
2023/04/28 05:21:13;;;;;;;11.43;6.93;;;;;;;;;;4952303;28;20042;-77
2023/04/28 05:23:39;;;;;;;24.88;10.73;;;;;;;;;;4948994;28;20118;-73
2023/04/28 05:26:05;;;;;;;18.52;9.98;;;;;;;;;;4947539;28;20054;-76
2023/04/28 05:28:30;;;;;;;20.80;10.43;;;;;;;;;;4933775;28;20043;-75
2023/04/28 05:30:56;;;;;;;14.82;8.15;;;;;;;;;;4942383;28;20419;-75
2023/04/28 05:33:22;;;;;;;16.98;7.97;;;;;;;;;;4940506;28;20043;-75
2023/04/28 05:35:48;;;;;;;18.92;7.22;;;;;;;;;;4929463;28;20081;-72
2023/04/28 05:38:14;;;;;;;12.98;6.82;;;;;;;;;;4939968;28;20080;-76
2023/04/28 05:40:39;;;;;;;13.38;7.10;;;;;;;;;;4944867;28;20358;-75
2023/04/28 05:43:05;;;;;;;10.00;6.47;;;;;;;;;;4936687;28;20073;-75
2023/04/28 05:45:30;;;;;;;14.52;7.45;;;;;;;;;;4939408;28;20342;-75
2023/04/28 05:47:55;;;;;;;16.83;10.82;;;;;;;;;;4950256;28;20392;-76
2023/04/28 05:50:21;;;;;;;13.60;8.27;;;;;;;;;;4949958;28;20126;-74
2023/04/28 05:52:46;;;;;;;14.98;8.80;;;;;;;;;;4948402;28;20042;-76
2023/04/28 05:55:11;;;;;;;12.57;7.63;;;;;;;;;;4948605;28;20531;-75
2023/04/28 05:57:37;;;;;;;15.00;7.80;;;;;;;;;;4943438;28;20412;-73
2023/04/28 06:00:03;;;;;;;6.72;5.07;;;;;;;;;;4936540;28;20051;-76
2023/04/28 06:02:28;;;;;;;12.98;7.20;;;;;;;;;;4949916;28;20047;-74
2023/04/28 06:04:54;;;;;;;12.98;8.27;;;;;;;;;;4948200;28;20089;-74
2023/04/28 06:07:19;;;;;;;12.13;7.10;;;;;;;;;;4950614;28;20046;-75
2023/04/28 06:09:44;;;;;;;12.70;6.90;;;;;;;;;;4949787;28;20038;-74
2023/04/28 06:12:10;;;;;;;13.27;7.13;;;;;;;;;;4928926;28;20141;-76
2023/04/28 06:14:36;;;;;;;10.32;6.97;;;;;;;;;;4949835;28;20071;-75
2023/04/28 06:17:03;;;;;;;12.48;7.40;;;;;;;;;;4954125;28;20073;-76
2023/04/28 06:19:28;;;;;;;13.02;7.45;;;;;;;;;;4945636;28;20081;-75
2023/04/28 06:21:53;;;;;;;12.75;7.65;;;;;;;;;;4939656;28;20047;-72
2023/04/28 06:24:19;;;;;;;15.15;8.40;;;;;;;;;;4944137;28;20235;-76
2023/04/28 06:26:45;;;;;;;13.88;7.93;;;;;;;;;;4930166;28;20118;-75
2023/04/28 06:29:10;;;;;;;11.50;7.05;;;;;;;;;;4950393;28;20050;-74
2023/04/28 06:31:36;;;;;;;13.25;7.90;;;;;;;;;;4950304;28;20535;-75
2023/04/28 06:34:01;;;;;;;11.70;7.53;;;;;;;;;;4952616;28;20035;-76
2023/04/28 06:36:27;;;;;;;12.32;7.63;;;;;;;;;;4948337;28;20916;-76
2023/04/28 06:38:52;;;;;;;14.90;7.60;;;;;;;;;;4946525;28;20046;-76
2023/04/28 06:41:18;;;;;;;14.75;8.23;;;;;;;;;;4945425;28;20038;-75
2023/04/28 06:43:43;;;;;;;11.48;7.53;;;;;;;;;;4953054;28;20034;-74
2023/04/28 06:46:10;;;;;;;12.43;7.50;;;;;;;;;;4952252;28;20043;-76
2023/04/28 06:48:35;;;;;;;11.98;8.65;;;;;;;;;;4951222;28;20053;-75
2023/04/28 06:51:01;;;;;;;14.07;7.93;;;;;;;;;;4948906;28;20050;-75
2023/04/28 06:53:26;;;;;;;15.15;8.50;;;;;;;;;;4941557;28;20484;-74
2023/04/28 06:55:51;;;;;;;14.90;7.55;;;;;;;;;;4935416;28;20046;-75
2023/04/28 06:58:17;;;;;;;11.40;7.20;;;;;;;;;;4948296;28;20043;-75
2023/04/28 07:00:42;;;;;;;15.07;8.13;;;;;;;;;;4939798;28;20548;-72
2023/04/28 07:03:08;;;;;;;13.75;8.52;;;;;;;;;;4949308;28;20126;-75
2023/04/28 07:05:33;;;;;;;12.63;8.07;;;;;;;;;;4934824;28;20047;-73
2023/04/28 07:07:59;;;;;;;12.52;8.30;;;;;;;;;;4940804;28;20034;-73
2023/04/28 07:10:24;;;;;;;12.63;8.20;;;;;;;;;;4940403;28;20122;-75
2023/04/28 07:12:51;;;;;;;11.20;8.05;;;;;;;;;;4950389;28;20117;-75
2023/04/28 07:15:16;;;;;;;13.45;8.80;;;;;;;;;;4951879;28;20040;-74
2023/04/28 07:17:42;;;;;;;13.50;8.25;;;;;;;;;;4950941;28;20041;-74
2023/04/28 07:20:08;;;;;;;11.95;8.05;;;;;;;;;;4944881;28;20305;-73
2023/04/28 07:22:33;;;;;;;15.00;8.57;;;;;;;;;;4928031;28;20042;-74
2023/04/28 07:24:58;;;;;;;13.00;7.65;;;;;;;;;;4939759;28;20466;-73
2023/04/28 07:27:24;;;;;;;13.55;8.73;;;;;;;;;;4948198;28;21121;-76
2023/04/28 07:29:49;;;;;;;13.55;8.63;;;;;;;;;;4927063;28;20041;-71
2023/04/28 07:32:15;;;;;;;14.40;8.15;;;;;;;;;;4943444;28;20664;-73
2023/04/28 07:34:40;;;;;;;15.38;8.73;;;;;;;;;;4931225;28;20085;-74
2023/04/28 07:37:06;;;;;;;14.15;8.80;;;;;;;;;;4929526;28;20049;-75
2023/04/28 07:39:33;;;;;;;12.85;8.57;;;;;;;;;;4930449;28;20679;-76
2023/04/28 07:41:59;;;;;;;17.38;9.60;;;;;;;;;;4937022;28;20047;-74
2023/04/28 07:44:24;;;;;;;7.20;4.95;;;;;;;;;;4948838;28;20078;-74
2023/04/28 07:46:50;;;;;;;15.10;9.60;;;;;;;;;;4936406;28;20048;-75
2023/04/28 07:49:16;;;;;;;12.93;8.65;;;;;;;;;;4949834;28;20074;-71
2023/04/28 07:51:42;;;;;;;15.35;8.95;;;;;;;;;;4923891;28;20946;-73
2023/04/28 07:54:07;;;;;;;14.48;9.40;;;;;;;;;;4943557;28;20050;-73
2023/04/28 07:56:33;;;;;;;14.88;9.30;;;;;;;;;;4949137;28;20780;-74
2023/04/28 07:58:58;;;;;;;11.68;8.48;;;;;;;;;;4942302;28;20051;-75
2023/04/28 08:01:24;;;;;;;12.98;8.55;;;;;;;;;;4940229;28;20039;-72
2023/04/28 08:03:49;;;;;;;13.07;9.25;;;;;;;;;;4933407;28;20087;-71
2023/04/28 08:06:15;;;;;;;14.27;8.57;;;;;;;;;;4941144;28;20042;-75
2023/04/28 08:08:40;;;;;;;12.73;7.30;;;;;;;;;;4952745;28;20037;-73
2023/04/28 08:11:07;;;;;;;12.45;8.23;;;;;;;;;;4950593;28;20122;-75
2023/04/28 08:13:32;;;;;;;13.57;9.23;;;;;;;;;;4942878;28;20098;-74
2023/04/28 08:16:01;;;;;;;13.93;9.13;;;;;;;;;;4932894;28;20055;-75
2023/04/28 08:18:28;;;;;;;15.55;9.40;;;;;;;;;;4937745;28;20030;-75
2023/04/28 08:20:54;;;;;;;15.45;9.95;;;;;;;;;;4931347;28;20042;-73
2023/04/28 08:23:20;;;;;;;3.85;2.92;;;;;;;;;;4947409;28;20094;-75
2023/04/28 08:25:46;;;;;;;15.88;9.07;;;;;;;;;;4943424;28;20042;-73
2023/04/28 08:28:12;;;;;;;14.40;9.05;;;;;;;;;;4941520;28;20051;-75
2023/04/28 08:30:37;;;;;;;14.45;9.13;;;;;;;;;;4943917;28;20429;-75
2023/04/28 08:33:03;;;;;;;14.35;9.45;;;;;;;;;;4920188;28;20108;-75
2023/04/28 08:35:29;;;;;;;15.90;9.73;;;;;;;;;;4947275;28;20042;-71
2023/04/28 08:37:55;;;;;;;15.57;9.10;;;;;;;;;;4941523;28;20121;-72
2023/04/28 08:40:20;;;;;;;15.32;10.18;;;;;;;;;;4942874;28;20102;-74
2023/04/28 08:42:46;;;;;;;14.02;9.10;;;;;;;;;;4949735;28;20064;-75
2023/04/28 08:45:15;;;;;;;14.77;9.68;;;;;;;;;;4933994;28;20039;-75
2023/04/28 08:47:44;;;;;;;14.02;9.82;;;;;;;;;;4899487;28;20386;-72
2023/04/28 08:50:11;;;;;;;17.80;10.02;;;;;;;;;;4944966;28;20065;-72
2023/04/28 08:52:37;;;;;;;13.45;9.10;;;;;;;;;;4947671;28;20049;-75
2023/04/28 08:55:11;;;;;;;16.02;9.75;;;;;;;;;;4947469;28;20039;-75
2023/04/28 08:57:47;;;;;;;13.75;8.82;;;;;;;;;;4948631;28;20108;-73
2023/04/28 09:00:13;;;;;;;16.88;9.55;;;;;;;;;;4901987;28;20164;-72
2023/04/28 09:02:40;;;;;;;15.20;9.15;;;;;;;;;;4937045;28;20118;-72
2023/04/28 09:05:07;;;;;;;16.00;9.52;;;;;;;;;;4929488;28;20487;-75
2023/04/28 09:07:32;;;;;;;14.68;9.75;;;;;;;;;;4953065;28;20241;-75
2023/04/28 09:10:20;;;;;;;17.02;10.85;;;;;;;;;;4948588;28;22236;-75
2023/04/28 09:12:50;;;;;;;16.65;10.50;;;;;;;;;;4897311;28;20501;-76
2023/04/28 09:15:33;;;;;;;15.02;9.82;;;;;;;;;;4947059;28;20050;-72
2023/04/28 09:17:59;;;;;;;15.88;10.45;;;;;;;;;;4945140;28;20074;-75
2023/04/28 09:20:26;;;;;;;16.52;10.82;;;;;;;;;;4934394;28;20039;-73
2023/04/28 09:22:53;;;;;;;12.50;6.97;;;;;;;;;;4921951;28;20045;-75
2023/04/28 09:25:23;;;;;;;18.55;10.45;;;;;;;;;;4945386;28;20054;-75
2023/04/28 09:27:51;;;;;;;17.40;11.30;;;;;;;;;;4942560;28;20054;-76
2023/04/28 09:30:17;;;;;;;15.70;11.23;;;;;;;;;;4930171;28;20046;-71
2023/04/28 09:32:42;;;;;;;16.02;10.65;;;;;;;;;;4944715;28;20112;-75
2023/04/28 09:35:08;;;;;;;18.88;12.15;;;;;;;;;;4949210;28;20687;-75
2023/04/28 09:37:34;;;;;;;18.02;11.30;;;;;;;;;;4914887;28;20042;-70
2023/04/28 09:40:17;;;;;;;14.82;10.35;;;;;;;;;;4933559;28;20042;-74
2023/04/28 09:42:44;;;;;;;16.13;11.20;;;;;;;;;;4940710;28;20042;-75
2023/04/28 09:45:14;;;;;;;17.35;11.27;;;;;;;;;;4947129;28;20046;-73
2023/04/28 09:47:45;;;;;;;15.23;11.13;;;;;;;;;;4947599;28;20046;-75
2023/04/28 09:50:13;;;;;;;16.63;10.45;;;;;;;;;;4902900;28;20055;-70
2023/04/28 09:52:40;;;;;;;15.25;10.52;;;;;;;;;;4928362;28;20139;-73
2023/04/28 09:55:09;;;;;;;15.60;10.35;;;;;;;;;;4948046;28;20065;-74
2023/04/28 09:57:35;;;;;;;17.33;10.80;;;;;;;;;;4944290;28;20070;-73
2023/04/28 10:00:06;;;;;;;16.27;11.23;;;;;;;;;;4946530;28;20050;-75
2023/04/28 10:02:33;;;;;;;14.80;10.68;;;;;;;;;;4923617;28;20688;-74
2023/04/28 10:04:59;;;;;;;15.82;10.43;;;;;;;;;;4931866;28;20463;-72
2023/04/28 10:07:25;;;;;;;17.33;11.40;;;;;;;;;;4945918;28;20492;-75
2023/04/28 10:09:50;;;;;;;15.93;10.65;;;;;;;;;;4933966;28;20042;-75
2023/04/28 10:12:17;;;;;;;14.80;10.70;;;;;;;;;;4938048;28;20046;-75
2023/04/28 10:14:48;;;;;;;16.75;10.48;;;;;;;;;;4944880;28;20034;-76
2023/04/28 10:17:16;;;;;;;12.77;10.45;;;;;;;;;;4923097;28;20497;-72
2023/04/28 10:19:46;;;;;;;15.32;10.60;;;;;;;;;;4951028;28;20041;-72
2023/04/28 10:22:42;;;;;;;16.33;10.90;;;;;;;;;;4941235;28;20049;-75
2023/04/28 10:25:10;;;;;;;15.18;11.20;;;;;;;;;;4947268;28;20551;-75
2023/04/28 10:27:38;;;;;;;14.43;10.50;;;;;;;;;;4899090;28;20078;-73
2023/04/28 10:30:10;;;;;;;18.20;11.90;;;;;;;;;;4947169;28;20572;-74
2023/04/28 10:32:36;;;;;;;15.70;11.18;;;;;;;;;;4946912;28;20042;-71
2023/04/28 10:35:20;;;;;;;18.20;11.40;;;;;;;;;;4947643;28;20041;-75
2023/04/28 10:38:02;;;;;;;16.63;11.02;;;;;;;;;;4917955;28;20089;-75
2023/04/28 10:40:35;;;;;;;13.93;10.35;;;;;;;;;;4938995;28;20157;-74
2023/04/28 10:43:01;;;;;;;16.67;11.23;;;;;;;;;;4947154;28;20046;-75
2023/04/28 10:46:05;;;;;;;16.27;10.23;;;;;;;;;;4948743;28;20113;-73
2023/04/28 10:48:36;;;;;;;17.02;10.93;;;;;;;;;;4878667;28;20499;-74
2023/04/28 10:51:08;;;;;;;15.52;10.68;;;;;;;;;;4943249;28;20626;-75
2023/04/28 10:53:45;;;;;;;13.80;9.88;;;;;;;;;;4951177;28;20800;-74
2023/04/28 10:56:18;;;;;;;14.57;11.00;;;;;;;;;;4948860;28;20051;-75
2023/04/28 10:58:57;;;;;;;14.25;9.57;;;;;;;;;;4934606;28;20070;-75
2023/04/28 11:01:33;;;;;;;13.38;9.52;;;;;;;;;;4940495;28;20074;-73
2023/04/28 11:04:09;;;;;;;13.30;9.52;;;;;;;;;;4947439;28;20131;-72
2023/04/28 11:06:39;;;;;;;13.52;9.65;;;;;;;;;;4947169;28;20045;-74
2023/04/28 11:09:13;;;;;;;14.45;9.48;;;;;;;;;;4931578;28;20031;-76
2023/04/28 11:12:09;;;;;;;14.52;9.60;;;;;;;;;;4922513;28;20031;-74
2023/04/28 11:14:36;;;;;;;12.30;9.63;;;;;;;;;;4950501;28;20039;-75
2023/04/28 11:17:04;;;;;;;15.30;8.80;;;;;;;;;;4950154;28;20050;-74
2023/04/28 11:19:35;;;;;;;9.60;8.02;;;;;;;;;;4932700;28;20053;-76
2023/04/28 11:22:18;;;;;;;10.40;8.43;;;;;;;;;;4943199;28;20560;-73
2023/04/28 11:24:58;;;;;;;14.48;9.07;;;;;;;;;;4944775;28;20130;-75
2023/04/28 11:27:24;;;;;;;7.43;4.88;;;;;;;;;;4928903;28;20063;-75
2023/04/28 11:29:50;;;;;;;14.80;8.98;;;;;;;;;;4920515;28;20046;-74
2023/04/28 11:32:15;;;;;;;13.32;9.95;;;;;;;;;;4932100;28;20089;-74
2023/04/28 11:34:41;;;;;;;15.32;9.88;;;;;;;;;;4954473;28;20055;-76
2023/04/28 11:37:07;;;;;;;15.88;10.07;;;;;;;;;;4944149;28;20035;-76
2023/04/28 11:39:33;;;;;;;14.27;10.15;;;;;;;;;;4940448;28;20662;-76
2023/04/28 11:42:08;;;;;;;15.05;9.95;;;;;;;;;;4937538;28;20035;-76
2023/04/28 11:44:33;;;;;;;15.00;10.18;;;;;;;;;;4914591;28;20603;-75
2023/04/28 11:47:01;;;;;;;13.20;9.07;;;;;;;;;;4951516;28;20058;-73
2023/04/28 11:49:29;;;;;;;13.70;9.65;;;;;;;;;;4947564;28;20598;-72
2023/04/28 11:51:55;;;;;;;12.25;8.68;;;;;;;;;;4945082;28;20471;-75
2023/04/28 11:54:24;;;;;;;13.52;9.88;;;;;;;;;;4934039;28;20118;-75
2023/04/28 11:56:51;;;;;;;11.88;7.85;;;;;;;;;;4920913;28;20051;-76
2023/04/28 11:59:19;;;;;;;12.85;9.30;;;;;;;;;;4956805;28;20508;-74
2023/04/28 12:01:51;;;;;;;12.32;9.10;;;;;;;;;;4929677;28;20042;-76
2023/04/28 12:04:36;;;;;;;14.55;9.32;;;;;;;;;;4942231;28;20748;-75
2023/04/28 12:07:16;;;;;;;12.43;8.35;;;;;;;;;;4924359;28;20050;-75
2023/04/28 12:09:47;;;;;;;16.58;10.35;;;;;;;;;;4924322;28;20048;-73
2023/04/28 12:12:15;;;;;;;12.10;9.30;;;;;;;;;;4944410;28;20042;-76
2023/04/28 12:15:01;;;;;;;12.40;9.05;;;;;;;;;;4956198;28;20258;-75
2023/04/28 12:17:28;;;;;;;10.95;7.68;;;;;;;;;;4949839;28;20043;-75
2023/04/28 12:19:54;;;;;;;12.90;9.57;;;;;;;;;;4928949;28;20057;-73
2023/04/28 12:22:20;;;;;;;13.57;9.75;;;;;;;;;;4941467;28;20043;-75
2023/04/28 12:24:45;;;;;;;12.13;9.05;;;;;;;;;;4949762;28;20046;-75
2023/04/28 12:27:20;;;;;;;14.63;10.05;;;;;;;;;;4950068;28;20051;-75
2023/04/28 12:29:46;;;;;;;13.68;10.10;;;;;;;;;;4947808;28;20611;-73
2023/04/28 12:32:12;;;;;;;15.32;10.80;;;;;;;;;;4906858;28;20055;-75
2023/04/28 12:34:41;;;;;;;16.13;10.10;;;;;;;;;;4950279;28;20524;-76
2023/04/28 12:37:06;;;;;;;14.60;9.95;;;;;;;;;;4952807;28;20050;-73
2023/04/28 12:39:33;;;;;;;14.55;9.82;;;;;;;;;;4945980;28;20035;-75
2023/04/28 12:41:59;;;;;;;15.88;10.68;;;;;;;;;;4934622;28;20094;-74
2023/04/28 12:44:26;;;;;;;12.00;9.15;;;;;;;;;;4954177;28;20480;-75
2023/04/28 12:46:53;;;;;;;16.42;9.50;;;;;;;;;;4934233;28;20062;-74
2023/04/28 12:49:18;;;;;;;14.75;10.35;;;;;;;;;;4945832;28;20583;-75
2023/04/28 12:51:43;;;;;;;14.52;10.23;;;;;;;;;;4920035;28;20122;-76
2023/04/28 12:54:09;;;;;;;10.52;8.35;;;;;;;;;;4931810;28;20042;-75
2023/04/28 12:56:35;;;;;;;13.57;10.20;;;;;;;;;;4949552;28;20129;-74
2023/04/28 12:59:03;;;;;;;15.18;10.52;;;;;;;;;;4952659;28;20078;-76
2023/04/28 13:01:28;;;;;;;16.05;10.20;;;;;;;;;;4925652;28;20051;-76
2023/04/28 13:03:54;;;;;;;13.48;10.02;;;;;;;;;;4948371;28;20037;-77
2023/04/28 13:06:19;;;;;;;14.80;10.85;;;;;;;;;;4940702;28;20089;-74
2023/04/28 13:08:45;;;;;;;13.35;9.73;;;;;;;;;;4950496;28;20126;-77
2023/04/28 13:11:11;;;;;;;13.25;9.90;;;;;;;;;;4935010;28;20114;-75
2023/04/28 13:13:36;;;;;;;14.45;10.07;;;;;;;;;;4937455;28;20042;-75
2023/04/28 13:16:03;;;;;;;14.85;10.65;;;;;;;;;;4932910;28;20174;-77
2023/04/28 13:18:29;;;;;;;13.75;10.60;;;;;;;;;;4948890;28;20098;-77
2023/04/28 13:20:54;;;;;;;15.73;9.98;;;;;;;;;;4940185;28;20050;-74
2023/04/28 13:23:20;;;;;;;13.98;10.02;;;;;;;;;;4948353;28;20038;-76
2023/04/28 13:25:46;;;;;;;14.20;10.20;;;;;;;;;;4950867;28;20061;-75
2023/04/28 13:28:12;;;;;;;13.98;9.88;;;;;;;;;;4932322;28;20046;-75
2023/04/28 13:30:37;;;;;;;9.77;7.55;;;;;;;;;;4940766;28;20061;-77
2023/04/28 13:33:03;;;;;;;12.18;9.82;;;;;;;;;;4950784;28;20300;-74
2023/04/28 13:35:28;;;;;;;15.93;9.75;;;;;;;;;;4949780;28;20054;-75
2023/04/28 13:38:00;;;;;;;13.20;9.80;;;;;;;;;;4954081;28;20038;-76
2023/04/28 13:40:27;;;;;;;13.10;9.48;;;;;;;;;;4944324;28;20038;-77
2023/04/28 13:42:53;;;;;;;12.80;9.73;;;;;;;;;;4930960;28;20043;-75
2023/04/28 13:45:18;;;;;;;15.77;11.38;;;;;;;;;;4953370;28;20488;-75
2023/04/28 13:47:44;;;;;;;16.08;10.80;;;;;;;;;;4951050;28;20057;-75
2023/04/28 13:50:09;;;;;;;12.02;9.43;;;;;;;;;;4949889;28;20109;-76
2023/04/28 13:52:35;;;;;;;13.82;10.30;;;;;;;;;;4945107;28;20550;-77
2023/04/28 13:55:00;;;;;;;12.23;10.25;;;;;;;;;;4943536;28;20045;-76
2023/04/28 13:57:26;;;;;;;14.23;10.38;;;;;;;;;;4929331;28;20052;-74
2023/04/28 13:59:51;;;;;;;13.85;10.60;;;;;;;;;;4941260;28;20117;-77
2023/04/28 14:02:17;;;;;;;13.20;9.95;;;;;;;;;;4947023;28;20046;-75
2023/04/28 14:04:46;;;;;;;13.63;10.20;;;;;;;;;;4946001;28;20543;-74
2023/04/28 14:07:13;;;;;;;13.02;9.95;;;;;;;;;;4950104;28;20219;-74
2023/04/28 14:09:39;;;;;;;13.65;10.13;;;;;;;;;;4924555;28;20053;-76
2023/04/28 14:12:05;;;;;;;12.80;10.52;;;;;;;;;;4938870;28;20042;-74
2023/04/28 14:14:30;;;;;;;13.73;11.68;;;;;;;;;;4947977;28;20038;-76
2023/04/28 14:16:56;;;;;;;15.50;11.68;;;;;;;;;;4946992;28;20042;-75
2023/04/28 14:19:21;;;;;;;15.00;10.40;;;;;;;;;;4947391;28;20134;-74
2023/04/28 14:21:47;;;;;;;15.20;11.20;;;;;;;;;;4943218;28;20046;-74
2023/04/28 14:24:13;;;;;;;13.23;9.85;;;;;;;;;;4932048;28;20466;-74
2023/04/28 14:26:39;;;;;;;13.05;9.15;;;;;;;;;;4948892;28;20034;-74
2023/04/28 14:29:04;;;;;;;13.52;10.27;;;;;;;;;;4942170;28;20142;-74